createdAt,value
2022-11-12T00:28:20.620Z,85.88
2022-11-12T00:58:20.636Z,86.08
2022-11-12T01:28:20.647Z,86.01
2022-11-12T01:58:20.647Z,86.46
2022-11-12T02:28:20.644Z,86.35
2022-11-12T02:58:20.655Z,86.32
2022-11-12T03:28:20.648Z,85.82
2022-11-12T03:58:20.655Z,85.91
2022-11-12T04:28:20.650Z,85.9
2022-11-12T04:58:20.655Z,85.79
2022-11-12T05:28:20.663Z,85.92
2022-11-12T05:58:20.697Z,85.88
2022-11-12T06:28:20.696Z,86
2022-11-12T06:58:20.665Z,86.05
2022-11-12T07:28:20.675Z,86.28
2022-11-12T07:58:20.682Z,86.55
2022-11-12T08:28:20.690Z,86.56
2022-11-12T08:58:20.690Z,86.25
2022-11-12T09:28:20.703Z,85.53
2022-11-12T09:58:20.692Z,85.36
2022-11-12T10:28:20.700Z,85.01
2022-11-12T10:58:20.706Z,84.84
2022-11-12T11:28:20.714Z,84.77
2022-11-12T11:58:20.712Z,84.19
2022-11-12T12:28:20.714Z,83.31
2022-11-12T12:58:20.713Z,83.11
2022-11-12T13:28:20.708Z,82.89
2022-11-12T13:58:20.716Z,82.49
2022-11-12T14:28:20.733Z,82.63
2022-11-12T14:58:20.739Z,82.79
2022-11-12T15:28:20.748Z,83.17
2022-11-12T15:58:20.763Z,83.73
2022-11-12T16:28:20.770Z,83.82
2022-11-12T16:58:20.770Z,84.2
2022-11-12T17:28:20.768Z,84.27
2022-11-12T17:58:20.772Z,84.57
2022-11-12T18:28:20.779Z,84.58
2022-11-12T18:58:20.791Z,85.01
2022-11-12T19:28:20.781Z,84.93
2022-11-12T19:58:20.785Z,85.08
2022-11-12T20:28:20.827Z,85.03
2022-11-12T20:58:20.800Z,85.14
2022-11-12T21:28:20.844Z,85.4
2022-11-12T21:58:20.820Z,85.27
2022-11-12T22:28:20.799Z,85.2
2022-11-12T22:58:20.797Z,85.86
2022-11-12T23:28:20.810Z,85.85
2022-11-12T23:58:20.815Z,85.79
